createdAt,value
2019-05-21T00:01:39.514Z,96.06
2019-05-21T00:03:45.943Z,96.05
2019-05-21T00:05:52.386Z,96.07
2019-05-21T00:07:58.859Z,96.02
2019-05-21T00:10:08.537Z,96.02
2019-05-21T00:12:15.067Z,96.01
2019-05-21T00:14:21.473Z,96.02
2019-05-21T00:16:27.887Z,96.05
2019-05-21T00:18:34.417Z,96.09
2019-05-21T00:20:40.902Z,96.15
2019-05-21T00:22:47.311Z,96.14
2019-05-21T00:24:53.845Z,96.20
2019-05-21T00:27:00.368Z,96.22
2019-05-21T00:30:01.546Z,96.26
2019-05-21T00:33:03.455Z,96.30
2019-05-21T00:36:05.799Z,96.33
2019-05-21T00:39:06.766Z,96.30
2019-05-21T00:42:00.527Z,96.26
2019-05-21T00:44:07.208Z,96.24
2019-05-21T00:46:13.799Z,96.16
2019-05-21T00:48:20.240Z,96.13
2019-05-21T00:50:26.726Z,96.07
2019-05-21T00:52:33.118Z,96.02
2019-05-21T00:54:39.655Z,95.99
2019-05-21T00:56:46.153Z,95.93
2019-05-21T00:58:52.596Z,95.84
2019-05-21T01:00:59.032Z,95.68
2019-05-21T01:03:05.485Z,95.57
2019-05-21T01:05:12.026Z,95.42
2019-05-21T01:07:18.505Z,95.26
2019-05-21T01:09:25.058Z,95.11
2019-05-21T01:11:31.487Z,94.93
2019-05-21T01:13:37.904Z,94.85
2019-05-21T01:15:44.671Z,94.74
2019-05-21T01:17:51.167Z,94.65
2019-05-21T01:19:57.648Z,94.55
2019-05-21T01:22:04.134Z,94.27
2019-05-21T01:24:10.712Z,94.02
2019-05-21T01:26:17.206Z,93.97
2019-05-21T01:28:23.700Z,93.87
2019-05-21T01:30:30.119Z,94.00
2019-05-21T01:32:36.493Z,94.03
2019-05-21T01:34:42.970Z,94.07
2019-05-21T01:36:49.397Z,94.11
2019-05-21T01:38:55.777Z,94.23
2019-05-21T01:41:02.244Z,94.20
2019-05-21T01:43:08.734Z,94.24
2019-05-21T01:45:15.305Z,94.34
2019-05-21T01:47:21.727Z,94.39
2019-05-21T01:49:28.144Z,94.45
2019-05-21T01:51:34.554Z,94.47
2019-05-21T01:53:40.996Z,94.49
2019-05-21T01:55:47.418Z,94.53
2019-05-21T01:57:53.830Z,94.55
2019-05-21T02:00:00.207Z,94.57
2019-05-21T02:02:06.654Z,94.57
2019-05-21T02:04:13.139Z,94.60
2019-05-21T02:06:19.823Z,94.69
2019-05-21T02:08:26.262Z,94.83
2019-05-21T02:10:32.811Z,94.94
2019-05-21T02:12:39.183Z,95.02
2019-05-21T02:14:45.618Z,95.19
2019-05-21T02:16:52.040Z,95.34
2019-05-21T02:18:58.451Z,95.41
2019-05-21T02:21:04.982Z,95.46
2019-05-21T02:23:11.373Z,95.53
2019-05-21T02:25:18.666Z,95.56
2019-05-21T02:27:25.173Z,95.63
2019-05-21T02:29:32.663Z,95.63
2019-05-21T02:31:39.191Z,95.61
2019-05-21T02:33:45.612Z,95.60
2019-05-21T02:35:54.578Z,95.54
2019-05-21T02:38:00.153Z,95.44
2019-05-21T02:40:08.031Z,95.38
2019-05-21T02:42:14.473Z,95.29
2019-05-21T02:44:20.906Z,95.26
2019-05-21T02:46:27.418Z,95.20
2019-05-21T02:48:33.810Z,95.11
2019-05-21T02:50:40.287Z,95.03
2019-05-21T02:52:46.721Z,94.98
2019-05-21T02:54:53.594Z,94.88
2019-05-21T02:56:59.994Z,94.79
2019-05-21T02:59:06.613Z,94.61
2019-05-21T03:01:17.726Z,94.46
2019-05-21T03:03:24.562Z,94.39
2019-05-21T03:05:31.089Z,94.29
2019-05-21T03:07:37.555Z,94.11
2019-05-21T03:09:43.998Z,93.84
2019-05-21T03:11:50.499Z,93.54
2019-05-21T03:13:57.003Z,93.27
2019-05-21T03:16:03.642Z,92.73
2019-05-21T03:18:10.411Z,92.16
2019-05-21T03:20:16.981Z,92.03
2019-05-21T03:22:23.492Z,91.89
2019-05-21T03:24:29.849Z,91.40
2019-05-21T03:26:36.360Z,91.39
2019-05-21T03:28:42.780Z,91.21
2019-05-21T03:30:49.299Z,90.88
2019-05-21T03:32:55.727Z,90.51
2019-05-21T03:35:02.381Z,90.07
2019-05-21T03:37:10.215Z,89.80
2019-05-21T03:39:19.478Z,89.12
2019-05-21T03:41:24.939Z,88.74
2019-05-21T03:43:32.847Z,88.12
2019-05-21T03:45:39.456Z,87.97
2019-05-21T03:47:47.423Z,87.24
2019-05-21T03:49:54.509Z,85.76
2019-05-21T03:52:00.901Z,85.63
2019-05-21T03:54:07.351Z,85.44
2019-05-21T03:56:13.940Z,84.62
2019-05-21T03:58:20.940Z,84.19
2019-05-21T04:00:27.501Z,84.46
2019-05-21T04:02:33.927Z,84.00
2019-05-21T04:04:41.605Z,83.22
2019-05-21T04:06:51.761Z,82.85
2019-05-21T04:08:56.089Z,81.89
2019-05-21T04:11:02.553Z,79.83
2019-05-21T04:13:09.437Z,74.55
2019-05-21T04:15:17.818Z,70.58
2019-05-21T04:17:28.647Z,65.95
2019-05-21T04:19:36.711Z,62.50
2019-05-21T04:21:43.121Z,58.91
2019-05-21T04:23:50.456Z,55.51
2019-05-21T04:25:59.979Z,54.03
2019-05-21T04:28:07.356Z,51.83
2019-05-21T04:30:16.932Z,50.60
2019-05-21T04:32:23.302Z,49.34
2019-05-21T04:34:29.726Z,48.77
2019-05-21T04:36:36.233Z,47.99
2019-05-21T04:38:42.648Z,46.66
2019-05-21T04:40:50.678Z,47.41
2019-05-21T04:43:01.438Z,48.56
2019-05-21T04:45:08.459Z,48.26
2019-05-21T04:47:15.636Z,46.75
2019-05-21T04:49:22.022Z,45.75
2019-05-21T04:51:28.466Z,44.53
2019-05-21T04:53:34.962Z,44.88
2019-05-21T04:55:41.426Z,44.01
2019-05-21T04:57:47.847Z,42.96
2019-05-21T04:59:54.248Z,41.78
2019-05-21T05:02:00.636Z,40.31
2019-05-21T05:04:08.038Z,39.57
2019-05-21T05:06:14.571Z,39.24
2019-05-21T05:08:22.500Z,38.48
2019-05-21T05:10:29.039Z,37.24
2019-05-21T05:12:36.535Z,37.97
2019-05-21T05:14:42.938Z,38.00
2019-05-21T05:16:49.447Z,37.20
2019-05-21T05:18:55.935Z,36.16
2019-05-21T05:21:02.295Z,36.30
2019-05-21T05:23:08.686Z,37.80
2019-05-21T05:25:16.677Z,37.88
2019-05-21T05:27:23.177Z,37.29
2019-05-21T05:29:29.596Z,36.41
2019-05-21T05:31:36.012Z,34.51
2019-05-21T05:33:42.440Z,34.80
2019-05-21T05:35:48.930Z,33.93
2019-05-21T05:37:55.349Z,34.12
2019-05-21T05:40:01.808Z,35.62
2019-05-21T05:42:08.344Z,38.74
2019-05-21T05:44:14.875Z,42.51
2019-05-21T05:46:21.236Z,45.28
2019-05-21T05:48:29.218Z,46.88
2019-05-21T05:50:37.294Z,46.07
2019-05-21T05:52:43.748Z,44.29
2019-05-21T05:54:50.225Z,42.49
2019-05-21T05:56:56.644Z,42.80
2019-05-21T05:59:03.146Z,41.98
2019-05-21T06:01:09.564Z,37.35
2019-05-21T06:03:15.994Z,34.02
2019-05-21T06:05:22.508Z,31.47
2019-05-21T06:07:28.948Z,30.65
2019-05-21T06:09:35.345Z,33.46
2019-05-21T06:11:41.755Z,36.98
2019-05-21T06:13:49.664Z,38.93
2019-05-21T06:15:57.117Z,38.42
2019-05-21T06:18:03.580Z,35.61
2019-05-21T06:20:10.897Z,33.05
2019-05-21T06:22:17.369Z,33.82
2019-05-21T06:24:23.880Z,30.82
2019-05-21T06:26:30.385Z,29.25
2019-05-21T06:28:36.805Z,28.82
2019-05-21T06:30:43.257Z,26.95
2019-05-21T06:32:49.669Z,26.85
2019-05-21T06:34:56.082Z,26.67
2019-05-21T06:37:03.637Z,26.23
2019-05-21T06:39:11.398Z,26.88
2019-05-21T06:41:17.910Z,27.25
2019-05-21T06:43:24.358Z,27.43
2019-05-21T06:45:30.848Z,28.92
2019-05-21T06:47:37.409Z,31.62
2019-05-21T06:49:43.843Z,34.30
2019-05-21T06:51:50.254Z,37.10
2019-05-21T06:53:56.728Z,39.63
2019-05-21T06:56:07.182Z,40.54
2019-05-21T06:58:11.166Z,40.59
2019-05-21T07:00:20.482Z,38.73
2019-05-21T07:02:26.923Z,37.03
2019-05-21T07:04:33.297Z,36.39
2019-05-21T07:06:39.715Z,35.97
2019-05-21T07:08:46.158Z,33.65
2019-05-21T07:10:52.549Z,35.99
2019-05-21T07:12:58.983Z,39.40
2019-05-21T07:15:09.319Z,43.31
2019-05-21T07:17:15.795Z,48.05
2019-05-21T07:19:22.388Z,50.21
2019-05-21T07:21:28.917Z,51.77
2019-05-21T07:23:35.314Z,53.61
2019-05-21T07:25:41.732Z,53.87
2019-05-21T07:27:48.131Z,54.07
2019-05-21T07:29:54.539Z,54.43
2019-05-21T07:32:00.959Z,55.91
2019-05-21T07:34:07.428Z,56.73
2019-05-21T07:36:13.989Z,57.52
2019-05-21T07:38:20.501Z,58.02
2019-05-21T07:40:26.921Z,57.88
2019-05-21T07:42:33.407Z,57.74
2019-05-21T07:44:39.851Z,57.40
2019-05-21T07:46:46.399Z,57.80
2019-05-21T07:48:52.891Z,58.25
2019-05-21T07:50:59.373Z,59.27
2019-05-21T07:53:07.382Z,59.60
2019-05-21T07:55:13.971Z,59.79
2019-05-21T07:57:20.450Z,59.61
2019-05-21T07:59:26.838Z,60.08
2019-05-21T08:01:33.305Z,60.45
2019-05-21T08:03:39.670Z,60.98
2019-05-21T08:05:47.161Z,58.78
2019-05-21T08:07:53.645Z,57.78
2019-05-21T08:10:00.040Z,56.64
2019-05-21T08:12:27.919Z,56.57
2019-05-21T08:14:14.860Z,57.01
2019-05-21T08:16:21.334Z,59.84
2019-05-21T08:18:27.723Z,61.49
2019-05-21T08:20:34.122Z,62.86
2019-05-21T08:22:40.513Z,63.87
2019-05-21T08:24:46.969Z,64.57
2019-05-21T08:26:53.359Z,65.46
2019-05-21T08:28:59.756Z,65.77
2019-05-21T08:31:06.301Z,66.49
2019-05-21T08:33:12.704Z,67.22
2019-05-21T08:35:19.083Z,68.01
2019-05-21T08:37:25.548Z,68.81
2019-05-21T08:39:31.987Z,69.01
2019-05-21T08:41:38.446Z,69.61
2019-05-21T08:43:45.191Z,69.93
2019-05-21T08:45:51.585Z,69.87
2019-05-21T08:47:58.183Z,69.19
2019-05-21T08:50:09.383Z,66.73
2019-05-21T08:52:15.773Z,64.73
2019-05-21T08:54:23.794Z,64.49
2019-05-21T08:56:30.988Z,65.35
2019-05-21T08:58:37.435Z,67.75
2019-05-21T09:00:43.888Z,69.11
2019-05-21T09:02:50.373Z,70.51
2019-05-21T09:04:56.908Z,71.87
2019-05-21T09:07:03.423Z,72.51
2019-05-21T09:09:09.822Z,72.96
2019-05-21T09:11:16.336Z,72.95
2019-05-21T09:13:22.697Z,72.90
2019-05-21T09:15:29.102Z,72.51
2019-05-21T09:17:35.501Z,71.49
2019-05-21T09:19:41.937Z,71.50
2019-05-21T09:21:48.432Z,69.66
2019-05-21T09:23:54.848Z,69.07
2019-05-21T09:26:01.301Z,68.16
2019-05-21T09:28:07.965Z,68.77
2019-05-21T09:30:15.448Z,68.94
2019-05-21T09:32:22.009Z,68.18
2019-05-21T09:34:28.488Z,65.51
2019-05-21T09:36:34.938Z,66.49
2019-05-21T09:38:41.371Z,66.61
2019-05-21T09:40:47.862Z,66.37
2019-05-21T09:42:54.376Z,66.90
2019-05-21T09:45:00.802Z,66.37
2019-05-21T09:47:07.261Z,66.73
2019-05-21T09:49:13.752Z,66.32
2019-05-21T09:51:21.942Z,66.07
2019-05-21T09:53:28.425Z,66.62
2019-05-21T09:55:34.942Z,66.49
2019-05-21T09:57:45.869Z,66.45
2019-05-21T09:59:53.968Z,66.25
2019-05-21T10:02:03.109Z,66.63
2019-05-21T10:04:09.546Z,65.98
2019-05-21T10:06:16.006Z,65.91
2019-05-21T10:08:22.477Z,64.91
2019-05-21T10:10:28.954Z,65.03
2019-05-21T10:12:35.433Z,65.34
2019-05-21T10:14:41.844Z,64.49
2019-05-21T10:16:48.300Z,63.87
2019-05-21T10:18:54.872Z,63.01
2019-05-21T10:21:01.334Z,61.13
2019-05-21T10:23:07.897Z,59.71
2019-05-21T10:25:16.013Z,58.80
2019-05-21T10:27:22.802Z,58.92
2019-05-21T10:29:29.248Z,59.48
2019-05-21T10:31:35.660Z,59.38
2019-05-21T10:33:42.086Z,58.83
2019-05-21T10:35:48.484Z,58.66
2019-05-21T10:37:55.642Z,59.95
2019-05-21T10:40:03.315Z,59.95
2019-05-21T10:42:09.892Z,59.66
2019-05-21T10:44:16.391Z,60.91
2019-05-21T10:46:22.908Z,60.95
2019-05-21T10:48:29.539Z,60.46
2019-05-21T10:50:36.071Z,61.05
2019-05-21T10:52:42.522Z,59.98
2019-05-21T10:54:49.014Z,60.54
2019-05-21T10:56:55.621Z,61.17
2019-05-21T10:59:02.071Z,61.82
2019-05-21T11:01:10.270Z,62.07
2019-05-21T11:03:24.574Z,61.13
2019-05-21T11:05:35.416Z,60.17
2019-05-21T11:07:43.296Z,60.23
2019-05-21T11:09:49.709Z,60.87
2019-05-21T11:11:56.148Z,60.94
2019-05-21T11:14:02.750Z,61.48
2019-05-21T11:16:09.279Z,61.83
2019-05-21T11:18:15.830Z,61.44
2019-05-21T11:20:22.487Z,60.84
2019-05-21T11:22:28.874Z,60.66
2019-05-21T11:24:35.306Z,60.11
2019-05-21T11:26:41.784Z,59.85
2019-05-21T11:28:48.212Z,57.69
2019-05-21T11:30:54.776Z,58.49
2019-05-21T11:33:01.265Z,58.73
2019-05-21T11:35:10.648Z,58.57
2019-05-21T11:37:17.103Z,59.14
2019-05-21T11:39:23.601Z,59.04
2019-05-21T11:41:30.124Z,59.62
2019-05-21T11:43:36.686Z,60.04
2019-05-21T11:45:43.469Z,61.01
2019-05-21T11:47:50.150Z,61.60
2019-05-21T11:49:56.625Z,61.42
2019-05-21T11:52:03.072Z,61.69
2019-05-21T11:54:09.595Z,62.38
2019-05-21T11:56:15.982Z,62.83
2019-05-21T11:58:22.520Z,62.12
2019-05-21T12:00:29.499Z,61.82
2019-05-21T12:02:35.873Z,61.00
2019-05-21T12:04:42.306Z,61.38
2019-05-21T12:06:49.746Z,61.93
2019-05-21T12:08:57.383Z,61.88
2019-05-21T12:11:04.017Z,61.05
2019-05-21T12:13:10.506Z,62.25
2019-05-21T12:15:17.418Z,62.27
2019-05-21T12:17:23.948Z,62.15
2019-05-21T12:19:30.369Z,62.82
2019-05-21T12:21:37.867Z,62.71
2019-05-21T12:23:44.410Z,61.17
2019-05-21T12:25:51.856Z,60.78
2019-05-21T12:27:58.315Z,60.35
2019-05-21T12:30:08.458Z,59.58
2019-05-21T12:32:14.906Z,58.44
2019-05-21T12:34:21.383Z,56.18
2019-05-21T12:36:27.898Z,55.42
2019-05-21T12:38:34.496Z,54.97
2019-05-21T12:40:40.901Z,55.65
2019-05-21T12:42:47.393Z,54.23
2019-05-21T12:44:54.296Z,54.56
2019-05-21T12:47:00.779Z,55.09
2019-05-21T12:49:07.290Z,54.08
2019-05-21T12:51:13.935Z,54.91
2019-05-21T12:53:20.616Z,54.47
2019-05-21T12:55:27.046Z,53.32
2019-05-21T12:57:33.576Z,52.61
2019-05-21T12:59:40.206Z,51.68
2019-05-21T13:01:46.572Z,52.10
2019-05-21T13:03:55.391Z,52.53
2019-05-21T13:06:02.284Z,52.30
2019-05-21T13:08:08.921Z,52.47
2019-05-21T13:10:15.875Z,53.06
2019-05-21T13:12:22.285Z,53.96
2019-05-21T13:14:28.791Z,54.86
2019-05-21T13:16:35.278Z,54.97
2019-05-21T13:18:41.797Z,54.54
2019-05-21T13:20:48.294Z,54.63
2019-05-21T13:22:54.773Z,54.94
2019-05-21T13:25:01.227Z,55.43
2019-05-21T13:27:09.052Z,64.58
2019-05-21T13:29:15.608Z,67.76
2019-05-21T13:31:22.416Z,67.49
2019-05-21T13:33:28.937Z,70.96
2019-05-21T13:35:35.459Z,70.86
2019-05-21T13:37:42.059Z,73.42
2019-05-21T13:39:50.432Z,74.05
2019-05-21T13:41:56.590Z,75.77
2019-05-21T13:44:04.430Z,75.62
2019-05-21T13:46:10.865Z,71.90
2019-05-21T13:48:17.426Z,71.61
2019-05-21T13:50:23.965Z,71.88
2019-05-21T13:52:30.394Z,71.98
2019-05-21T13:54:36.993Z,70.46
2019-05-21T13:56:43.439Z,68.78
2019-05-21T13:58:49.928Z,69.21
2019-05-21T14:00:56.524Z,68.05
2019-05-21T14:03:03.420Z,67.16
2019-05-21T14:05:12.284Z,68.34
2019-05-21T14:07:17.990Z,67.79
2019-05-21T14:09:24.277Z,68.90
2019-05-21T14:11:30.908Z,68.05
2019-05-21T14:13:37.529Z,68.17
2019-05-21T14:15:44.008Z,69.17
2019-05-21T14:17:50.514Z,68.84
2019-05-21T14:19:56.927Z,67.83
2019-05-21T14:22:03.522Z,67.82
2019-05-21T14:24:10.113Z,68.42
2019-05-21T14:26:16.520Z,68.40
2019-05-21T14:28:22.999Z,66.98
2019-05-21T14:30:29.597Z,67.82
2019-05-21T14:32:36.019Z,67.45
2019-05-21T14:34:42.449Z,63.80
2019-05-21T14:36:48.897Z,63.39
2019-05-21T14:38:55.343Z,62.59
2019-05-21T14:41:01.724Z,60.02
2019-05-21T14:43:08.287Z,60.47
2019-05-21T14:45:15.903Z,60.38
2019-05-21T14:47:22.339Z,60.46
2019-05-21T14:49:28.744Z,57.71
2019-05-21T14:51:35.174Z,58.58
2019-05-21T14:53:41.571Z,59.12
2019-05-21T14:55:48.100Z,63.09
2019-05-21T14:57:54.526Z,64.27
2019-05-21T15:00:01.040Z,64.94
2019-05-21T15:02:07.805Z,64.03
2019-05-21T15:04:14.288Z,62.87
2019-05-21T15:06:20.775Z,61.82
2019-05-21T15:08:27.209Z,59.52
2019-05-21T15:10:47.266Z,58.56
2019-05-21T15:12:41.680Z,59.01
2019-05-21T15:14:48.037Z,58.89
2019-05-21T15:16:54.599Z,59.04
2019-05-21T15:19:01.258Z,58.48
2019-05-21T15:21:09.424Z,55.74
2019-05-21T15:23:15.992Z,55.75
2019-05-21T15:25:22.579Z,55.90
2019-05-21T15:27:30.128Z,54.03
2019-05-21T15:29:36.593Z,53.88
2019-05-21T15:31:42.979Z,53.62
2019-05-21T15:33:49.539Z,49.69
2019-05-21T15:35:55.979Z,50.22
2019-05-21T15:38:02.472Z,49.95
2019-05-21T15:40:09.979Z,51.04
2019-05-21T15:42:16.758Z,50.48
2019-05-21T15:44:23.158Z,50.61
2019-05-21T15:46:45.505Z,50.54
2019-05-21T15:48:37.771Z,51.31
2019-05-21T15:50:44.335Z,52.61
2019-05-21T15:52:50.787Z,52.78
2019-05-21T15:54:57.218Z,53.66
2019-05-21T15:57:03.702Z,53.91
2019-05-21T15:59:12.991Z,54.24
2019-05-21T16:01:19.373Z,54.03
2019-05-21T16:03:25.890Z,54.51
2019-05-21T16:05:32.309Z,54.46
2019-05-21T16:07:38.798Z,54.53
2019-05-21T16:09:45.363Z,54.20
2019-05-21T16:11:51.785Z,54.06
2019-05-21T16:13:58.221Z,53.97
2019-05-21T16:16:04.979Z,53.38
2019-05-21T16:18:11.436Z,54.10
2019-05-21T16:20:19.368Z,54.44
2019-05-21T16:22:25.825Z,53.83
2019-05-21T16:24:32.743Z,54.41
2019-05-21T16:26:39.265Z,54.23
2019-05-21T16:28:45.679Z,53.53
2019-05-21T16:30:52.077Z,52.01
2019-05-21T16:32:59.787Z,52.10
2019-05-21T16:35:10.256Z,51.83
2019-05-21T16:37:16.977Z,51.76
2019-05-21T16:39:25.283Z,52.20
2019-05-21T16:41:44.244Z,52.00
2019-05-21T16:43:40.110Z,52.44
2019-05-21T16:45:46.522Z,53.04
2019-05-21T16:47:52.946Z,53.28
2019-05-21T16:49:59.547Z,53.27
2019-05-21T16:52:07.102Z,53.39
2019-05-21T16:54:13.548Z,53.24
2019-05-21T16:56:20.029Z,53.50
2019-05-21T16:58:26.462Z,53.88
2019-05-21T17:00:33.491Z,54.13
2019-05-21T17:02:39.986Z,54.25
2019-05-21T17:04:46.404Z,54.02
2019-05-21T17:06:52.796Z,53.99
2019-05-21T17:08:59.175Z,53.86
2019-05-21T17:11:05.697Z,54.09
2019-05-21T17:13:12.701Z,54.86
2019-05-21T17:15:19.413Z,54.83
2019-05-21T17:17:25.878Z,55.11
2019-05-21T17:19:32.385Z,55.63
2019-05-21T17:21:39.046Z,55.90
2019-05-21T17:23:45.419Z,56.14
2019-05-21T17:25:51.911Z,56.72
2019-05-21T17:27:58.318Z,56.95
2019-05-21T17:30:08.926Z,57.29
2019-05-21T17:32:15.352Z,57.54
2019-05-21T17:34:21.803Z,57.81
2019-05-21T17:36:28.274Z,57.89
2019-05-21T17:38:35.068Z,57.96
2019-05-21T17:40:41.725Z,58.07
2019-05-21T17:42:48.662Z,58.42
2019-05-21T17:44:56.258Z,58.95
2019-05-21T17:47:02.756Z,58.92
2019-05-21T17:49:09.298Z,59.54
2019-05-21T17:51:15.705Z,59.87
2019-05-21T17:53:22.144Z,60.41
2019-05-21T17:55:28.790Z,60.75
2019-05-21T17:57:36.058Z,61.23
2019-05-21T17:59:42.592Z,61.41
2019-05-21T18:01:50.728Z,61.38
2019-05-21T18:03:57.231Z,61.76
2019-05-21T18:06:05.014Z,62.23
2019-05-21T18:08:12.025Z,62.52
2019-05-21T18:10:18.822Z,63.08
2019-05-21T18:12:32.162Z,63.66
2019-05-21T18:14:36.135Z,63.87
2019-05-21T18:16:43.012Z,64.49
2019-05-21T18:18:49.996Z,64.78
2019-05-21T18:20:57.150Z,65.28
2019-05-21T18:23:03.907Z,65.63
2019-05-21T18:25:11.587Z,66.35
2019-05-21T18:27:20.322Z,66.39
2019-05-21T18:29:26.788Z,67.09
2019-05-21T18:31:33.350Z,67.64
2019-05-21T18:33:39.819Z,68.15
2019-05-21T18:35:46.368Z,68.62
2019-05-21T18:37:53.104Z,68.99
2019-05-21T18:39:59.747Z,68.60
2019-05-21T18:42:21.267Z,67.92
2019-05-21T18:44:16.627Z,67.79
2019-05-21T18:46:23.211Z,68.41
2019-05-21T18:48:30.631Z,68.82
2019-05-21T18:50:37.463Z,68.90
2019-05-21T18:52:45.243Z,69.19
2019-05-21T18:54:52.985Z,69.55
2019-05-21T18:56:59.556Z,69.84
2019-05-21T18:59:06.149Z,70.42
2019-05-21T19:01:12.951Z,70.37
2019-05-21T19:03:25.229Z,70.80
2019-05-21T19:05:27.858Z,70.92
2019-05-21T19:07:35.864Z,71.34
2019-05-21T19:09:42.568Z,71.77
2019-05-21T19:11:49.035Z,72.11
2019-05-21T19:13:55.556Z,71.86
2019-05-21T19:16:02.126Z,72.12
2019-05-21T19:18:08.728Z,72.37
2019-05-21T19:20:16.355Z,72.51
2019-05-21T19:22:23.197Z,72.59
2019-05-21T19:24:30.674Z,72.89
2019-05-21T19:26:37.177Z,73.04
2019-05-21T19:28:43.669Z,73.24
2019-05-21T19:30:50.307Z,73.39
2019-05-21T19:32:56.674Z,73.52
2019-05-21T19:35:03.647Z,73.54
2019-05-21T19:37:10.942Z,73.89
2019-05-21T19:39:17.559Z,74.08
2019-05-21T19:41:24.351Z,74.35
2019-05-21T19:43:32.032Z,74.41
2019-05-21T19:45:38.893Z,74.70
2019-05-21T19:47:45.383Z,74.90
2019-05-21T19:49:51.829Z,75.17
2019-05-21T19:51:58.337Z,74.94
2019-05-21T19:54:05.076Z,75.20
2019-05-21T19:56:11.619Z,75.18
2019-05-21T19:58:18.538Z,75.38
2019-05-21T20:00:27.868Z,75.53
2019-05-21T20:02:35.048Z,75.37
2019-05-21T20:04:42.573Z,75.53
2019-05-21T20:06:49.351Z,75.80
2019-05-21T20:08:56.412Z,75.95
2019-05-21T20:11:04.049Z,76.12
2019-05-21T20:13:10.583Z,76.24
2019-05-21T20:15:18.537Z,76.54
2019-05-21T20:17:26.202Z,76.45
2019-05-21T20:19:33.051Z,76.90
2019-05-21T20:21:39.673Z,76.74
2019-05-21T20:23:47.278Z,76.76
2019-05-21T20:25:56.853Z,77.18
2019-05-21T20:28:03.091Z,77.24
2019-05-21T20:30:14.815Z,77.37
2019-05-21T20:32:23.207Z,77.37
2019-05-21T20:34:30.203Z,77.33
2019-05-21T20:36:36.810Z,77.35
2019-05-21T20:38:43.577Z,77.46
2019-05-21T20:40:52.447Z,77.78
2019-05-21T20:43:01.379Z,77.86
2019-05-21T20:45:11.613Z,78.03
2019-05-21T20:47:18.986Z,78.12
2019-05-21T20:49:25.755Z,78.10
2019-05-21T20:51:32.783Z,78.12
2019-05-21T20:53:39.379Z,78.24
2019-05-21T20:55:46.020Z,78.18
2019-05-21T20:57:53.862Z,78.37
2019-05-21T21:00:03.352Z,78.38
2019-05-21T21:02:13.145Z,78.31
2019-05-21T21:04:19.652Z,78.39
2019-05-21T21:06:35.294Z,78.46
2019-05-21T21:08:38.968Z,78.40
2019-05-21T21:10:45.571Z,78.51
2019-05-21T21:12:52.850Z,78.55
2019-05-21T21:14:59.434Z,78.67
2019-05-21T21:17:06.269Z,78.68
2019-05-21T21:19:12.945Z,78.66
2019-05-21T21:21:20.632Z,78.66
2019-05-21T21:23:29.263Z,78.59
2019-05-21T21:25:35.908Z,78.63
2019-05-21T21:27:42.643Z,78.74
2019-05-21T21:29:49.385Z,78.72
2019-05-21T21:31:56.282Z,78.76
2019-05-21T21:34:03.903Z,78.86
2019-05-21T21:36:10.362Z,78.92
2019-05-21T21:38:18.600Z,79.00
2019-05-21T21:40:25.284Z,78.88
2019-05-21T21:42:32.330Z,78.94
2019-05-21T21:44:39.420Z,78.84
2019-05-21T21:46:45.975Z,78.79
2019-05-21T21:48:54.133Z,78.84
2019-05-21T21:51:01.070Z,78.82
2019-05-21T21:53:07.854Z,78.98
2019-05-21T21:55:14.885Z,78.83
2019-05-21T21:57:21.394Z,78.80
2019-05-21T21:59:27.929Z,79.08
2019-05-21T22:01:54.572Z,78.90
2019-05-21T22:04:04.798Z,78.82
2019-05-21T22:06:14.127Z,78.67
2019-05-21T22:08:21.027Z,78.78
2019-05-21T22:10:28.054Z,78.71
2019-05-21T22:12:34.607Z,78.83
2019-05-21T22:14:50.494Z,78.86
2019-05-21T22:16:51.885Z,78.88
2019-05-21T22:18:59.250Z,79.04
2019-05-21T22:21:05.772Z,79.01
2019-05-21T22:23:12.806Z,79.17
2019-05-21T22:25:20.302Z,79.11
2019-05-21T22:27:27.001Z,79.21
2019-05-21T22:29:33.566Z,79.18
2019-05-21T22:31:41.500Z,79.23
2019-05-21T22:33:47.909Z,79.30
2019-05-21T22:35:54.552Z,79.22
2019-05-21T22:38:01.025Z,79.10
2019-05-21T22:40:08.392Z,79.11
2019-05-21T22:42:15.923Z,79.17
2019-05-21T22:44:22.420Z,79.20
2019-05-21T22:46:28.972Z,79.37
2019-05-21T22:48:35.587Z,79.34
2019-05-21T22:50:42.144Z,79.46
2019-05-21T22:52:48.652Z,79.64
2019-05-21T22:54:55.365Z,79.64
2019-05-21T22:57:01.815Z,79.85
2019-05-21T22:59:08.417Z,80.01
2019-05-21T23:01:16.016Z,80.23
2019-05-21T23:03:22.886Z,80.31
2019-05-21T23:05:29.383Z,80.43
2019-05-21T23:07:36.097Z,80.46
2019-05-21T23:09:42.611Z,80.49
2019-05-21T23:11:49.073Z,80.68
2019-05-21T23:13:55.586Z,80.67
2019-05-21T23:16:05.057Z,80.92
2019-05-21T23:18:29.812Z,80.86
2019-05-21T23:20:47.288Z,80.99
2019-05-21T23:22:58.626Z,80.91
2019-05-21T23:25:10.633Z,80.85
2019-05-21T23:27:17.737Z,81.02
2019-05-21T23:29:24.639Z,80.95
2019-05-21T23:31:32.326Z,80.97
2019-05-21T23:33:38.893Z,80.86
2019-05-21T23:35:45.979Z,80.82
2019-05-21T23:37:53.260Z,80.78
2019-05-21T23:40:00.855Z,80.88
2019-05-21T23:42:08.801Z,80.91
2019-05-21T23:44:15.777Z,81.02
2019-05-21T23:46:23.127Z,81.11
2019-05-21T23:48:30.411Z,81.22
2019-05-21T23:50:37.009Z,81.27
2019-05-21T23:52:44.562Z,81.32
2019-05-21T23:54:51.509Z,81.35
2019-05-21T23:56:59.843Z,81.43
2019-05-21T23:59:08.046Z,81.46
